createdAt,value
2018-05-21T00:01:07.548Z,4.23
2018-05-21T00:03:35.049Z,4.17
2018-05-21T00:06:02.539Z,5.13
2018-05-21T00:08:30.018Z,3.73
2018-05-21T00:10:57.509Z,4.07
2018-05-21T00:13:25.779Z,3.93
2018-05-21T00:15:54.029Z,4.10
2018-05-21T00:18:21.501Z,4.30
2018-05-21T00:20:49.014Z,3.93
2018-05-21T00:23:16.487Z,4.10
2018-05-21T00:25:44.008Z,4.13
2018-05-21T00:28:12.202Z,4.50
2018-05-21T00:30:39.720Z,4.07
2018-05-21T00:33:07.972Z,4.00
2018-05-21T00:35:35.463Z,4.17
2018-05-21T00:38:03.715Z,4.23
2018-05-21T00:40:31.205Z,4.50
2018-05-21T00:42:58.703Z,3.60
2018-05-21T00:45:26.170Z,3.47
2018-05-21T00:47:54.152Z,3.80
2018-05-21T00:50:21.728Z,4.00
2018-05-21T00:52:49.180Z,3.77
2018-05-21T00:55:29.255Z,3.50
2018-05-21T00:57:57.505Z,3.80
2018-05-21T01:00:24.994Z,3.80
2018-05-21T01:02:52.472Z,3.43
2018-05-21T01:05:19.988Z,3.63
2018-05-21T01:07:47.487Z,3.80
2018-05-21T01:10:14.975Z,3.57
2018-05-21T01:12:42.588Z,4.20
2018-05-21T01:15:10.134Z,3.50
2018-05-21T01:17:39.067Z,3.47
2018-05-21T01:20:06.563Z,3.80
2018-05-21T01:22:34.042Z,3.70
2018-05-21T01:25:01.548Z,3.80
2018-05-21T01:27:29.049Z,3.60
2018-05-21T01:29:57.821Z,3.67
2018-05-21T01:32:25.330Z,4.03
2018-05-21T01:34:52.815Z,3.40
2018-05-21T01:37:21.677Z,3.23
2018-05-21T01:39:49.164Z,3.27
2018-05-21T01:42:17.226Z,3.33
2018-05-21T01:44:44.821Z,3.40
2018-05-21T01:47:12.356Z,3.80
2018-05-21T01:49:39.844Z,3.20
2018-05-21T01:52:08.103Z,3.10
2018-05-21T01:54:35.614Z,3.40
2018-05-21T01:57:03.115Z,3.40
2018-05-21T01:59:30.584Z,3.27
2018-05-21T02:01:58.120Z,3.60
2018-05-21T02:04:25.718Z,3.50
2018-05-21T02:06:53.164Z,3.60
2018-05-21T02:09:21.416Z,3.30
2018-05-21T02:11:48.903Z,3.20
2018-05-21T02:14:17.137Z,3.50
2018-05-21T02:16:44.666Z,3.40
2018-05-21T02:19:12.138Z,4.03
2018-05-21T02:21:39.645Z,3.57
2018-05-21T02:24:07.898Z,3.60
2018-05-21T02:26:35.389Z,3.37
2018-05-21T02:29:03.637Z,3.60
2018-05-21T02:31:31.123Z,3.30
2018-05-21T02:33:59.521Z,3.30
2018-05-21T02:36:27.072Z,3.23
2018-05-21T02:38:54.681Z,3.20
2018-05-21T02:41:22.158Z,3.47
2018-05-21T02:43:49.668Z,3.37
2018-05-21T02:46:17.191Z,3.47
2018-05-21T02:48:45.442Z,3.30
2018-05-21T02:51:12.929Z,3.67
2018-05-21T02:53:41.170Z,3.30
2018-05-21T02:56:08.692Z,3.67
2018-05-21T02:58:36.339Z,3.60
2018-05-21T03:01:03.836Z,3.47
2018-05-21T03:03:31.325Z,3.80
2018-05-21T03:05:59.585Z,3.27
2018-05-21T03:08:27.056Z,3.10
2018-05-21T03:10:54.548Z,3.53
2018-05-21T03:13:22.029Z,3.40
2018-05-21T03:15:49.513Z,3.50
2018-05-21T03:18:17.059Z,3.10
2018-05-21T03:20:45.433Z,3.20
2018-05-21T03:23:12.951Z,3.50
2018-05-21T03:25:40.435Z,3.27
2018-05-21T03:28:07.934Z,3.40
2018-05-21T03:30:35.456Z,3.60
2018-05-21T03:33:02.943Z,4.20
2018-05-21T03:35:30.468Z,3.30
2018-05-21T03:37:57.944Z,3.40
2018-05-21T03:40:25.428Z,3.40
2018-05-21T03:42:53.684Z,4.00
2018-05-21T03:45:21.160Z,3.10
2018-05-21T03:47:48.694Z,3.20
2018-05-21T03:50:16.322Z,3.33
2018-05-21T03:52:43.924Z,3.60
2018-05-21T03:55:11.478Z,3.60
2018-05-21T03:57:38.966Z,4.07
2018-05-21T04:00:19.080Z,3.10
2018-05-21T04:02:58.491Z,3.53
2018-05-21T04:05:26.030Z,3.40
2018-05-21T04:07:54.218Z,3.90
2018-05-21T04:10:21.710Z,3.60
2018-05-21T04:12:49.215Z,3.40
2018-05-21T04:15:16.737Z,3.57
2018-05-21T04:17:44.217Z,3.60
2018-05-21T04:20:12.539Z,3.73
2018-05-21T04:22:40.020Z,4.00
2018-05-21T04:25:08.190Z,3.77
2018-05-21T04:27:36.583Z,3.40
2018-05-21T04:30:04.612Z,4.57
2018-05-21T04:32:32.114Z,3.87
2018-05-21T04:34:59.589Z,3.67
2018-05-21T04:37:27.832Z,3.67
2018-05-21T04:39:56.051Z,3.53
2018-05-21T04:42:24.307Z,3.70
2018-05-21T04:44:51.797Z,3.90
2018-05-21T04:47:19.278Z,3.70
2018-05-21T04:49:46.766Z,3.17
2018-05-21T04:52:15.190Z,3.80
2018-05-21T04:54:42.747Z,3.90
2018-05-21T04:57:10.371Z,3.90
2018-05-21T04:59:37.896Z,4.10
2018-05-21T05:02:05.402Z,3.67
2018-05-21T05:04:32.903Z,4.20
2018-05-21T05:07:00.373Z,4.03
2018-05-21T05:09:28.565Z,4.30
2018-05-21T05:11:56.046Z,3.80
2018-05-21T05:14:24.376Z,4.00
2018-05-21T05:16:51.955Z,4.20
2018-05-21T05:19:20.379Z,4.17
2018-05-21T05:21:49.112Z,3.97
2018-05-21T05:24:17.178Z,4.30
2018-05-21T05:26:44.687Z,4.30
2018-05-21T05:29:12.942Z,3.90
2018-05-21T05:31:40.424Z,4.40
2018-05-21T05:34:08.674Z,4.13
2018-05-21T05:36:36.173Z,4.23
2018-05-21T05:39:03.658Z,3.87
2018-05-21T05:41:31.147Z,3.80
2018-05-21T05:43:58.692Z,4.40
2018-05-21T05:46:26.180Z,4.70
2018-05-21T05:48:54.561Z,4.20
2018-05-21T05:51:22.055Z,4.13
2018-05-21T05:53:49.555Z,4.57
2018-05-21T05:56:17.030Z,4.23
2018-05-21T05:58:45.286Z,3.97
2018-05-21T06:01:12.778Z,4.13
2018-05-21T06:03:41.084Z,4.73
2018-05-21T06:06:08.527Z,4.90
2018-05-21T06:08:36.038Z,4.37
2018-05-21T06:11:03.582Z,4.57
2018-05-21T06:13:31.057Z,4.80
2018-05-21T06:15:58.542Z,4.70
2018-05-21T06:18:26.800Z,4.53
2018-05-21T06:20:54.297Z,4.77
2018-05-21T06:23:21.793Z,4.77
2018-05-21T06:25:49.302Z,4.97
2018-05-21T06:28:18.427Z,4.53
2018-05-21T06:30:45.965Z,5.00
2018-05-21T06:33:13.444Z,4.63
2018-05-21T06:35:40.959Z,4.80
2018-05-21T06:38:09.206Z,5.30
2018-05-21T06:40:36.720Z,4.90
2018-05-21T06:43:04.225Z,4.80
2018-05-21T06:45:31.783Z,4.87
2018-05-21T06:47:59.296Z,4.70
2018-05-21T06:50:27.776Z,5.20
2018-05-21T06:52:55.309Z,5.23
2018-05-21T06:55:23.561Z,5.10
2018-05-21T06:57:51.782Z,5.00
2018-05-21T07:00:19.254Z,5.50
2018-05-21T07:02:46.771Z,4.87
2018-05-21T07:05:15.994Z,5.17
2018-05-21T07:07:43.489Z,5.37
2018-05-21T07:10:10.994Z,5.77
2018-05-21T07:12:39.236Z,5.00
2018-05-21T07:15:06.728Z,4.87
2018-05-21T07:17:34.230Z,5.20
2018-05-21T07:20:01.736Z,5.27
2018-05-21T07:22:30.010Z,5.20
2018-05-21T07:24:59.128Z,4.93
2018-05-21T07:27:26.657Z,5.23
2018-05-21T07:29:54.157Z,5.83
2018-05-21T07:32:21.637Z,5.10
2018-05-21T07:34:49.162Z,6.13
2018-05-21T07:37:16.679Z,5.10
2018-05-21T07:39:44.172Z,5.70
2018-05-21T07:42:12.652Z,5.57
2018-05-21T07:44:40.194Z,5.20
2018-05-21T07:47:08.437Z,4.63
2018-05-21T07:49:35.965Z,5.40
2018-05-21T07:52:03.440Z,5.67
2018-05-21T07:54:30.930Z,5.50
2018-05-21T07:56:58.418Z,5.60
2018-05-21T07:59:25.904Z,5.43
2018-05-21T08:01:54.372Z,5.83
2018-05-21T08:04:23.377Z,5.30
2018-05-21T08:06:50.871Z,5.83
2018-05-21T08:09:18.353Z,6.07
2018-05-21T08:11:46.614Z,5.73
2018-05-21T08:14:14.882Z,5.57
2018-05-21T08:16:42.366Z,5.50
2018-05-21T08:19:09.865Z,5.90
2018-05-21T08:21:37.352Z,5.20
2018-05-21T08:24:04.841Z,5.97
2018-05-21T08:26:33.072Z,5.53
2018-05-21T08:29:00.558Z,5.37
2018-05-21T08:31:28.923Z,5.67
2018-05-21T08:33:56.431Z,5.90
2018-05-21T08:36:23.924Z,5.70
2018-05-21T08:38:51.422Z,6.40
2018-05-21T08:41:18.906Z,5.97
2018-05-21T08:43:46.432Z,6.30
2018-05-21T08:46:14.679Z,6.00
2018-05-21T08:48:42.862Z,5.80
2018-05-21T08:51:10.997Z,5.80
2018-05-21T08:53:38.503Z,5.20
2018-05-21T08:56:06.773Z,5.70
2018-05-21T08:58:34.265Z,5.67
2018-05-21T09:01:01.786Z,5.70
2018-05-21T09:03:29.288Z,5.70
2018-05-21T09:05:56.771Z,5.10
2018-05-21T09:08:24.289Z,5.30
2018-05-21T09:10:51.804Z,5.67
2018-05-21T09:13:19.285Z,5.57
2018-05-21T09:15:47.549Z,5.73
2018-05-21T09:18:15.486Z,5.20
2018-05-21T09:20:42.954Z,5.27
2018-05-21T09:23:10.483Z,5.70
2018-05-21T09:25:37.969Z,5.03
2018-05-21T09:28:05.474Z,5.13
2018-05-21T09:30:33.711Z,5.27
2018-05-21T09:33:01.256Z,5.20
2018-05-21T09:35:29.718Z,5.13
2018-05-21T09:37:57.222Z,5.20
2018-05-21T09:40:24.732Z,5.20
2018-05-21T09:42:52.224Z,4.83
2018-05-21T09:45:20.507Z,4.73
2018-05-21T09:47:47.978Z,4.40
2018-05-21T09:50:16.246Z,4.60
2018-05-21T09:52:44.179Z,4.80
2018-05-21T09:55:11.674Z,4.40
2018-05-21T09:57:39.170Z,4.57
2018-05-21T10:00:06.669Z,4.63
2018-05-21T10:02:34.143Z,4.77
2018-05-21T10:05:01.688Z,4.50
2018-05-21T10:07:29.279Z,4.33
2018-05-21T10:09:57.557Z,4.70
2018-05-21T10:12:25.827Z,4.37
2018-05-21T10:14:54.125Z,4.63
2018-05-21T10:17:21.648Z,4.73
2018-05-21T10:19:49.153Z,4.47
2018-05-21T10:22:16.625Z,4.17
2018-05-21T10:24:44.123Z,4.80
2018-05-21T10:27:11.609Z,4.57
2018-05-21T10:29:39.839Z,4.50
2018-05-21T10:32:07.843Z,4.70
2018-05-21T10:34:36.097Z,4.17
2018-05-21T10:37:03.598Z,4.53
2018-05-21T10:39:31.084Z,4.00
2018-05-21T10:41:58.573Z,3.90
2018-05-21T10:44:26.065Z,4.17
2018-05-21T10:46:53.551Z,4.10
2018-05-21T10:49:21.836Z,3.53
2018-05-21T10:51:49.323Z,3.70
2018-05-21T10:54:16.809Z,3.97
2018-05-21T10:56:44.310Z,3.37
2018-05-21T10:59:11.816Z,3.70
2018-05-21T11:01:40.048Z,3.70
2018-05-21T11:04:08.305Z,4.03
2018-05-21T11:06:35.811Z,4.40
2018-05-21T11:09:03.291Z,3.50
2018-05-21T11:11:30.807Z,3.77
2018-05-21T11:13:58.301Z,3.30
2018-05-21T11:16:26.549Z,3.30
2018-05-21T11:18:54.051Z,3.60
2018-05-21T11:21:22.262Z,3.80
2018-05-21T11:23:49.727Z,3.80
2018-05-21T11:26:17.230Z,3.60
2018-05-21T11:28:45.198Z,3.80
2018-05-21T11:31:13.488Z,3.83
2018-05-21T11:33:40.991Z,3.90
2018-05-21T11:36:08.478Z,3.40
2018-05-21T11:38:36.835Z,3.60
2018-05-21T11:41:04.313Z,3.50
2018-05-21T11:43:32.572Z,3.37
2018-05-21T11:46:00.074Z,3.53
2018-05-21T11:48:27.559Z,3.97
2018-05-21T11:50:55.056Z,3.60
2018-05-21T11:53:23.294Z,3.60
2018-05-21T11:55:50.792Z,3.83
2018-05-21T11:58:19.088Z,3.47
2018-05-21T12:00:46.558Z,3.30
2018-05-21T12:03:14.123Z,3.17
2018-05-21T12:05:42.381Z,3.43
2018-05-21T12:08:09.877Z,3.27
2018-05-21T12:10:37.378Z,3.20
2018-05-21T12:13:05.663Z,3.83
2018-05-21T12:15:33.898Z,3.73
2018-05-21T12:18:01.429Z,3.67
2018-05-21T12:20:28.936Z,3.57
2018-05-21T12:22:56.429Z,3.40
2018-05-21T12:25:23.936Z,3.47
2018-05-21T12:27:51.425Z,3.90
2018-05-21T12:30:19.768Z,3.63
2018-05-21T12:32:47.276Z,3.83
2018-05-21T12:35:14.769Z,3.43
2018-05-21T12:37:42.269Z,3.60
2018-05-21T12:40:11.150Z,3.60
2018-05-21T12:42:39.258Z,3.80
2018-05-21T12:45:07.204Z,3.70
2018-05-21T12:47:35.506Z,3.60
2018-05-21T12:50:02.999Z,3.50
2018-05-21T12:52:30.503Z,3.60
2018-05-21T12:54:58.846Z,3.43
2018-05-21T12:57:26.328Z,3.50
2018-05-21T12:59:54.766Z,3.57
2018-05-21T13:02:22.899Z,3.40
2018-05-21T13:04:52.095Z,3.40
2018-05-21T13:07:19.690Z,3.07
2018-05-21T13:09:47.250Z,3.50
2018-05-21T13:12:14.852Z,3.50
2018-05-21T13:14:43.101Z,3.60
2018-05-21T13:17:10.611Z,3.40
2018-05-21T13:19:38.841Z,3.30
2018-05-21T13:22:06.415Z,3.30
2018-05-21T13:24:33.888Z,3.20
2018-05-21T13:27:02.158Z,3.40
2018-05-21T13:29:30.417Z,3.07
2018-05-21T13:31:57.912Z,3.53
2018-05-21T13:34:25.415Z,3.20
2018-05-21T13:36:53.062Z,3.30
2018-05-21T13:39:20.630Z,3.00
2018-05-21T13:41:48.251Z,3.27
2018-05-21T13:44:15.771Z,3.30
2018-05-21T13:46:43.304Z,3.30
2018-05-21T13:49:10.805Z,3.23
2018-05-21T13:51:39.079Z,3.30
2018-05-21T13:54:06.574Z,3.50
2018-05-21T13:56:34.040Z,3.57
2018-05-21T13:59:01.540Z,3.47
2018-05-21T14:01:29.031Z,3.20
2018-05-21T14:03:56.513Z,3.43
2018-05-21T14:06:24.009Z,3.00
2018-05-21T14:08:51.585Z,3.40
2018-05-21T14:11:19.724Z,3.10
2018-05-21T14:13:47.225Z,3.27
2018-05-21T14:16:15.575Z,3.30
2018-05-21T14:18:44.232Z,3.60
2018-05-21T14:21:11.739Z,3.00
2018-05-21T14:23:40.007Z,3.17
2018-05-21T14:26:07.500Z,3.50
2018-05-21T14:28:34.980Z,3.30
2018-05-21T14:31:03.423Z,3.60
2018-05-21T14:33:31.658Z,3.40
2018-05-21T14:35:59.198Z,3.93
2018-05-21T14:38:26.717Z,3.20
2018-05-21T14:40:55.005Z,3.57
2018-05-21T14:43:22.502Z,2.77
2018-05-21T14:45:49.994Z,2.90
2018-05-21T14:48:18.262Z,3.03
2018-05-21T14:50:45.816Z,3.17
2018-05-21T14:53:14.061Z,3.23
2018-05-21T14:55:41.550Z,2.60
2018-05-21T14:58:09.054Z,3.33
2018-05-21T15:00:36.541Z,2.80
2018-05-21T15:03:04.049Z,2.70
2018-05-21T15:05:32.328Z,3.00
2018-05-21T15:08:00.550Z,2.90
2018-05-21T15:10:28.053Z,3.23
2018-05-21T15:12:56.365Z,2.97
2018-05-21T15:15:23.991Z,3.00
2018-05-21T15:17:52.240Z,3.10
2018-05-21T15:20:19.767Z,3.30
2018-05-21T15:22:47.246Z,3.10
2018-05-21T15:25:14.747Z,3.10
2018-05-21T15:27:42.985Z,3.17
2018-05-21T15:30:10.493Z,3.00
2018-05-21T15:32:38.168Z,2.80
2018-05-21T15:35:05.761Z,3.27
2018-05-21T15:37:33.257Z,2.93
2018-05-21T15:40:01.548Z,2.73
2018-05-21T15:42:29.031Z,2.93
2018-05-21T15:44:56.530Z,3.00
2018-05-21T15:47:24.020Z,3.50
2018-05-21T15:49:51.529Z,3.07
2018-05-21T15:52:19.027Z,3.20
2018-05-21T15:54:46.527Z,3.50
2018-05-21T15:57:14.096Z,3.00
2018-05-21T15:59:41.603Z,3.10
2018-05-21T16:02:09.845Z,3.00
2018-05-21T16:04:37.342Z,3.20
2018-05-21T16:07:04.825Z,2.90
2018-05-21T16:09:32.324Z,2.97
2018-05-21T16:11:59.824Z,2.73
2018-05-21T16:14:27.322Z,3.27
2018-05-21T16:16:54.813Z,2.80
2018-05-21T16:19:22.372Z,2.87
2018-05-21T16:21:50.637Z,2.87
2018-05-21T16:24:18.907Z,3.03
2018-05-21T16:26:46.373Z,2.93
2018-05-21T16:29:14.634Z,2.97
2018-05-21T16:31:42.138Z,3.00
2018-05-21T16:34:09.615Z,2.90
2018-05-21T16:36:37.131Z,2.97
2018-05-21T16:39:06.097Z,3.10
2018-05-21T16:41:33.697Z,3.00
2018-05-21T16:44:01.914Z,3.20
2018-05-21T16:46:29.492Z,2.97
2018-05-21T16:48:57.189Z,2.30
2018-05-21T16:51:25.451Z,3.23
2018-05-21T16:53:53.802Z,3.00
2018-05-21T16:56:21.233Z,2.90
2018-05-21T16:58:48.721Z,2.90
2018-05-21T17:01:16.201Z,3.40
2018-05-21T17:03:44.463Z,2.83
2018-05-21T17:06:11.951Z,2.80
2018-05-21T17:08:40.133Z,2.87
2018-05-21T17:11:07.633Z,2.83
2018-05-21T17:13:35.154Z,3.03
2018-05-21T17:16:02.639Z,3.50
2018-05-21T17:18:30.141Z,2.90
2018-05-21T17:20:59.209Z,3.20
2018-05-21T17:23:26.690Z,3.17
2018-05-21T17:25:55.411Z,3.17
2018-05-21T17:28:22.899Z,3.03
2018-05-21T17:30:50.399Z,2.87
2018-05-21T17:33:18.652Z,2.90
2018-05-21T17:35:46.257Z,3.00
2018-05-21T17:38:13.806Z,2.90
2018-05-21T17:40:41.316Z,2.80
2018-05-21T17:43:08.881Z,3.53
2018-05-21T17:45:36.450Z,3.10
2018-05-21T17:48:04.016Z,3.20
2018-05-21T17:50:31.547Z,3.00
2018-05-21T17:52:59.062Z,3.20
2018-05-21T17:55:26.618Z,3.33
2018-05-21T17:57:54.192Z,3.17
2018-05-21T18:00:21.594Z,2.97
2018-05-21T18:02:49.091Z,2.90
2018-05-21T18:05:16.595Z,2.77
2018-05-21T18:07:44.091Z,2.87
2018-05-21T18:10:12.355Z,3.17
2018-05-21T18:12:39.831Z,3.00
2018-05-21T18:15:08.120Z,2.90
2018-05-21T18:17:36.214Z,2.83
2018-05-21T18:20:03.793Z,2.70
2018-05-21T18:22:31.848Z,2.80
2018-05-21T18:24:59.347Z,2.90
2018-05-21T18:27:27.446Z,3.10
2018-05-21T18:29:55.698Z,3.10
2018-05-21T18:32:23.232Z,3.03
2018-05-21T18:34:50.768Z,3.60
2018-05-21T18:37:18.265Z,3.20
2018-05-21T18:39:45.813Z,3.43
2018-05-21T18:42:13.326Z,3.20
2018-05-21T18:44:40.820Z,3.47
2018-05-21T18:47:08.315Z,3.30
2018-05-21T18:49:37.091Z,3.23
2018-05-21T18:52:04.602Z,3.17
2018-05-21T18:54:32.147Z,3.50
2018-05-21T18:56:59.647Z,3.77
2018-05-21T18:59:27.150Z,3.23
2018-05-21T19:01:55.423Z,3.57
2018-05-21T19:04:23.748Z,3.20
2018-05-21T19:06:51.221Z,3.50
2018-05-21T19:09:18.751Z,3.20
2018-05-21T19:11:47.013Z,3.00
2018-05-21T19:14:14.484Z,3.67
2018-05-21T19:16:41.997Z,3.57
2018-05-21T19:19:10.241Z,3.17
2018-05-21T19:21:37.836Z,3.37
2018-05-21T19:24:06.899Z,3.53
2018-05-21T19:26:34.423Z,3.00
2018-05-21T19:29:01.902Z,3.60
2018-05-21T19:31:29.455Z,3.17
2018-05-21T19:33:56.951Z,2.97
2018-05-21T19:36:24.455Z,3.50
2018-05-21T19:38:51.990Z,3.30
2018-05-21T19:41:19.637Z,3.13
2018-05-21T19:43:48.720Z,3.27
2018-05-21T19:46:17.070Z,3.03
2018-05-21T19:48:44.611Z,3.10
2018-05-21T19:51:12.095Z,3.50
2018-05-21T19:53:39.604Z,3.40
2018-05-21T19:56:07.091Z,3.23
2018-05-21T19:58:34.605Z,3.57
2018-05-21T20:01:02.946Z,3.40
2018-05-21T20:03:30.469Z,3.60
2018-05-21T20:05:57.947Z,3.50
2018-05-21T20:08:25.456Z,3.60
2018-05-21T20:10:53.727Z,3.40
2018-05-21T20:13:22.109Z,3.20
2018-05-21T20:15:50.401Z,3.20
2018-05-21T20:18:29.768Z,3.37
2018-05-21T20:20:57.289Z,3.70
2018-05-21T20:23:25.550Z,3.40
2018-05-21T20:25:54.351Z,3.20
2018-05-21T20:28:22.607Z,3.77
2018-05-21T20:30:50.123Z,3.40
2018-05-21T20:33:17.641Z,3.57
2018-05-21T20:35:45.931Z,3.67
2018-05-21T20:38:13.437Z,3.53
2018-05-21T20:40:41.014Z,3.50
2018-05-21T20:43:08.568Z,3.80
2018-05-21T20:45:36.072Z,3.67
2018-05-21T20:48:03.546Z,3.30
2018-05-21T20:50:31.487Z,3.30
2018-05-21T20:52:58.987Z,3.80
2018-05-21T20:55:26.472Z,3.20
2018-05-21T20:57:53.976Z,3.10
2018-05-21T21:00:22.229Z,3.60
2018-05-21T21:02:50.514Z,3.43
2018-05-21T21:05:18.018Z,3.50
2018-05-21T21:07:45.505Z,3.30
2018-05-21T21:10:13.769Z,3.53
2018-05-21T21:12:41.262Z,3.37
2018-05-21T21:15:08.740Z,3.70
2018-05-21T21:17:36.219Z,3.43
2018-05-21T21:20:04.292Z,3.40
2018-05-21T21:22:31.805Z,3.97
2018-05-21T21:24:59.305Z,4.20
2018-05-21T21:27:26.813Z,3.30
2018-05-21T21:29:55.080Z,3.57
2018-05-21T21:32:23.555Z,4.20
2018-05-21T21:34:51.615Z,3.47
2018-05-21T21:37:19.111Z,3.87
2018-05-21T21:39:46.597Z,3.53
2018-05-21T21:42:14.100Z,3.37
2018-05-21T21:44:42.838Z,3.73
2018-05-21T21:47:11.046Z,3.97
2018-05-21T21:49:38.563Z,3.70
2018-05-21T21:52:06.084Z,4.00
2018-05-21T21:54:34.347Z,3.73
2018-05-21T21:57:01.821Z,3.53
2018-05-21T21:59:30.122Z,3.97
2018-05-21T22:01:58.504Z,3.63
2018-05-21T22:04:25.997Z,3.90
2018-05-21T22:06:53.491Z,4.00
2018-05-21T22:09:21.782Z,3.27
2018-05-21T22:11:49.275Z,3.97
2018-05-21T22:14:16.817Z,3.67
2018-05-21T22:16:44.315Z,3.83
2018-05-21T22:19:11.798Z,3.87
2018-05-21T22:21:40.054Z,3.60
2018-05-21T22:24:07.560Z,3.63
2018-05-21T22:26:35.033Z,3.80
2018-05-21T22:29:02.625Z,3.80
2018-05-21T22:31:31.013Z,3.67
2018-05-21T22:33:58.507Z,3.80
2018-05-21T22:36:26.016Z,3.50
2018-05-21T22:38:53.548Z,3.30
2018-05-21T22:41:21.037Z,3.90
2018-05-21T22:43:48.537Z,3.83
2018-05-21T22:46:16.020Z,3.80
2018-05-21T22:48:44.411Z,4.00
2018-05-21T22:51:11.879Z,3.60
2018-05-21T22:53:39.379Z,3.80
2018-05-21T22:56:06.870Z,3.83
2018-05-21T22:58:34.364Z,3.87
2018-05-21T23:01:02.425Z,3.77
2018-05-21T23:03:30.777Z,4.20
2018-05-21T23:05:58.278Z,3.90
2018-05-21T23:08:25.759Z,3.73
2018-05-21T23:10:54.033Z,4.20
2018-05-21T23:13:22.278Z,3.67
2018-05-21T23:15:49.861Z,3.83
2018-05-21T23:18:18.099Z,3.97
2018-05-21T23:20:45.579Z,4.07
2018-05-21T23:23:13.072Z,3.90
2018-05-21T23:25:40.550Z,3.83
2018-05-21T23:28:08.069Z,4.23
2018-05-21T23:30:36.333Z,4.10
2018-05-21T23:33:04.579Z,3.83
2018-05-21T23:35:32.077Z,3.80
2018-05-21T23:38:00.835Z,4.20
2018-05-21T23:40:28.326Z,4.00
2018-05-21T23:42:56.593Z,4.50
2018-05-21T23:45:24.836Z,4.00
2018-05-21T23:47:53.847Z,3.90
2018-05-21T23:50:21.325Z,3.87
2018-05-21T23:52:49.591Z,4.23
2018-05-21T23:55:17.847Z,4.27
2018-05-21T23:57:45.327Z,3.97
